sensor_id;sensor_type;location;lat;lon;timestamp;pressure;altitude;pressure_sealevel;temperature;humidity
7480;BME280;3781;42.272;22.658;2023-11-18T00:01:04;93740.78;;;18.43;40.90
7480;BME280;3781;42.272;22.658;2023-11-18T00:03:31;93736.72;;;18.34;40.13
7480;BME280;3781;42.272;22.658;2023-11-18T00:06:00;93736.31;;;18.04;40.20
7480;BME280;3781;42.272;22.658;2023-11-18T00:08:27;93717.19;;;17.50;40.36
7480;BME280;3781;42.272;22.658;2023-11-18T00:10:53;93727.09;;;17.14;40.90
7480;BME280;3781;42.272;22.658;2023-11-18T00:13:20;93737.56;;;16.45;40.18
7480;BME280;3781;42.272;22.658;2023-11-18T00:15:47;93731.31;;;16.68;40.04
7480;BME280;3781;42.272;22.658;2023-11-18T00:18:14;93734.63;;;16.83;40.96
7480;BME280;3781;42.272;22.658;2023-11-18T00:20:41;93742.88;;;17.20;40.87
7480;BME280;3781;42.272;22.658;2023-11-18T00:23:09;93749.59;;;16.89;41.35
7480;BME280;3781;42.272;22.658;2023-11-18T00:25:36;93743.53;;;17.29;40.38
7480;BME280;3781;42.272;22.658;2023-11-18T00:28:05;93736.91;;;17.33;39.59
7480;BME280;3781;42.272;22.658;2023-11-18T00:30:32;93738.53;;;17.41;39.12
7480;BME280;3781;42.272;22.658;2023-11-18T00:32:59;93716.22;;;17.64;37.85
7480;BME280;3781;42.272;22.658;2023-11-18T00:35:26;93727.81;;;18.02;38.25
7480;BME280;3781;42.272;22.658;2023-11-18T00:37:55;93729.88;;;18.20;38.70
7480;BME280;3781;42.272;22.658;2023-11-18T00:40:23;93730.50;;;18.61;38.79
7480;BME280;3781;42.272;22.658;2023-11-18T00:42:50;93740.78;;;18.24;38.77
7480;BME280;3781;42.272;22.658;2023-11-18T00:45:17;93578.59;;;17.13;38.71
7480;BME280;3781;42.272;22.658;2023-11-18T00:47:44;93756.91;;;17.94;37.92
7480;BME280;3781;42.272;22.658;2023-11-18T00:50:11;93765.00;;;16.98;37.54
7480;BME280;3781;42.272;22.658;2023-11-18T00:52:38;93766.44;;;17.48;37.20
7480;BME280;3781;42.272;22.658;2023-11-18T00:55:07;93772.28;;;17.97;38.66
7480;BME280;3781;42.272;22.658;2023-11-18T00:57:37;93761.41;;;18.14;38.26
7480;BME280;3781;42.272;22.658;2023-11-18T01:00:06;93747.97;;;17.69;37.80
7480;BME280;3781;42.272;22.658;2023-11-18T01:02:39;93777.03;;;17.61;37.26
7480;BME280;3781;42.272;22.658;2023-11-18T01:05:06;93769.63;;;17.84;37.48
7480;BME280;3781;42.272;22.658;2023-11-18T01:07:36;93776.66;;;17.77;37.40
7480;BME280;3781;42.272;22.658;2023-11-18T01:10:04;93773.19;;;17.23;36.39
7480;BME280;3781;42.272;22.658;2023-11-18T01:12:31;93768.63;;;17.85;36.98
7480;BME280;3781;42.272;22.658;2023-11-18T01:14:59;93738.38;;;18.35;37.61
7480;BME280;3781;42.272;22.658;2023-11-18T01:17:26;93772.31;;;18.24;38.11
7480;BME280;3781;42.272;22.658;2023-11-18T01:19:53;93763.41;;;18.12;39.41
7480;BME280;3781;42.272;22.658;2023-11-18T01:22:20;93773.75;;;18.26;39.07
7480;BME280;3781;42.272;22.658;2023-11-18T01:24:47;93771.22;;;17.38;38.07
7480;BME280;3781;42.272;22.658;2023-11-18T01:27:14;93772.16;;;17.58;39.20
7480;BME280;3781;42.272;22.658;2023-11-18T01:29:41;93774.63;;;17.79;39.74
7480;BME280;3781;42.272;22.658;2023-11-18T01:32:09;93753.25;;;17.89;39.81
7480;BME280;3781;42.272;22.658;2023-11-18T01:34:36;93761.13;;;17.89;39.94
7480;BME280;3781;42.272;22.658;2023-11-18T01:37:04;93764.97;;;17.86;37.88
7480;BME280;3781;42.272;22.658;2023-11-18T01:39:32;93771.84;;;17.87;38.19
7480;BME280;3781;42.272;22.658;2023-11-18T01:41:59;93778.13;;;17.99;39.39
7480;BME280;3781;42.272;22.658;2023-11-18T01:44:26;93777.53;;;18.04;39.78
7480;BME280;3781;42.272;22.658;2023-11-18T01:46:54;93767.88;;;18.18;39.38
7480;BME280;3781;42.272;22.658;2023-11-18T01:49:23;93744.00;;;18.26;38.85
7480;BME280;3781;42.272;22.658;2023-11-18T01:51:52;93779.16;;;17.98;38.32
7480;BME280;3781;42.272;22.658;2023-11-18T01:54:21;93756.53;;;18.11;38.07
7480;BME280;3781;42.272;22.658;2023-11-18T01:56:49;93782.41;;;18.00;38.14
7480;BME280;3781;42.272;22.658;2023-11-18T01:59:17;93786.03;;;18.06;39.38
7480;BME280;3781;42.272;22.658;2023-11-18T02:01:46;93746.84;;;18.24;38.51
7480;BME280;3781;42.272;22.658;2023-11-18T02:04:15;93791.03;;;17.94;38.05
7480;BME280;3781;42.272;22.658;2023-11-18T02:06:43;93794.09;;;17.91;38.00
7480;BME280;3781;42.272;22.658;2023-11-18T02:09:10;93797.59;;;17.58;37.83
7480;BME280;3781;42.272;22.658;2023-11-18T02:11:42;93802.84;;;17.58;39.33
7480;BME280;3781;42.272;22.658;2023-11-18T02:14:14;93801.44;;;17.21;38.34
7480;BME280;3781;42.272;22.658;2023-11-18T02:16:43;93798.56;;;16.82;37.90
7480;BME280;3781;42.272;22.658;2023-11-18T02:19:21;93793.22;;;17.71;37.25
7480;BME280;3781;42.272;22.658;2023-11-18T02:21:50;93786.34;;;17.64;38.11
7480;BME280;3781;42.272;22.658;2023-11-18T02:24:26;93784.03;;;18.15;39.15
7480;BME280;3781;42.272;22.658;2023-11-18T02:26:58;93788.09;;;18.24;38.16
7480;BME280;3781;42.272;22.658;2023-11-18T02:29:27;93789.06;;;18.16;38.05
7480;BME280;3781;42.272;22.658;2023-11-18T02:32:00;93773.13;;;18.18;38.17
7480;BME280;3781;42.272;22.658;2023-11-18T02:34:32;93786.88;;;18.20;38.95
7480;BME280;3781;42.272;22.658;2023-11-18T02:37:02;93778.41;;;18.31;38.78
7480;BME280;3781;42.272;22.658;2023-11-18T02:39:36;93780.19;;;18.24;39.04
7480;BME280;3781;42.272;22.658;2023-11-18T02:42:08;93771.13;;;18.26;38.44
7480;BME280;3781;42.272;22.658;2023-11-18T02:44:38;93755.31;;;18.06;39.36
7480;BME280;3781;42.272;22.658;2023-11-18T02:47:05;93793.72;;;18.21;38.97
7480;BME280;3781;42.272;22.658;2023-11-18T02:49:34;93791.53;;;18.31;38.59
7480;BME280;3781;42.272;22.658;2023-11-18T02:52:01;93796.53;;;18.06;38.40
7480;BME280;3781;42.272;22.658;2023-11-18T02:54:28;93802.13;;;17.83;37.88
7480;BME280;3781;42.272;22.658;2023-11-18T02:56:54;93765.91;;;17.59;38.71
7480;BME280;3781;42.272;22.658;2023-11-18T02:59:23;93800.59;;;18.08;40.14
7480;BME280;3781;42.272;22.658;2023-11-18T03:01:53;93773.13;;;18.18;39.54
7480;BME280;3781;42.272;22.658;2023-11-18T03:04:20;93778.72;;;17.88;38.38
7480;BME280;3781;42.272;22.658;2023-11-18T03:06:49;93818.22;;;17.61;38.14
7480;BME280;3781;42.272;22.658;2023-11-18T03:09:16;93826.06;;;17.20;37.92
7480;BME280;3781;42.272;22.658;2023-11-18T03:11:44;93827.34;;;16.75;37.68
7480;BME280;3781;42.272;22.658;2023-11-18T03:14:11;93824.56;;;16.34;37.17
7480;BME280;3781;42.272;22.658;2023-11-18T03:16:39;93819.81;;;16.23;38.19
7480;BME280;3781;42.272;22.658;2023-11-18T03:19:06;93844.84;;;16.47;38.82
7480;BME280;3781;42.272;22.658;2023-11-18T03:21:34;93827.81;;;17.13;39.36
7480;BME280;3781;42.272;22.658;2023-11-18T03:24:01;93822.09;;;17.30;38.97
7480;BME280;3781;42.272;22.658;2023-11-18T03:26:28;93839.63;;;17.64;38.93
7480;BME280;3781;42.272;22.658;2023-11-18T03:28:55;93839.50;;;17.45;38.80
7480;BME280;3781;42.272;22.658;2023-11-18T03:31:22;93832.78;;;17.63;38.81
7480;BME280;3781;42.272;22.658;2023-11-18T03:33:50;93841.38;;;17.91;39.08
7480;BME280;3781;42.272;22.658;2023-11-18T03:36:17;93844.94;;;17.77;38.02
7480;BME280;3781;42.272;22.658;2023-11-18T03:38:44;93826.13;;;17.33;37.10
7480;BME280;3781;42.272;22.658;2023-11-18T03:41:11;93858.66;;;17.04;37.66
7480;BME280;3781;42.272;22.658;2023-11-18T03:43:38;93866.56;;;16.83;38.06
7480;BME280;3781;42.272;22.658;2023-11-18T03:46:05;93863.31;;;16.60;37.44
7480;BME280;3781;42.272;22.658;2023-11-18T03:48:33;93867.31;;;15.99;37.58
7480;BME280;3781;42.272;22.658;2023-11-18T03:51:02;93867.72;;;17.02;38.01
7480;BME280;3781;42.272;22.658;2023-11-18T03:53:29;93876.47;;;16.45;36.80
7480;BME280;3781;42.272;22.658;2023-11-18T03:55:56;93845.09;;;16.31;37.28
7480;BME280;3781;42.272;22.658;2023-11-18T03:58:23;93878.47;;;16.22;36.87
7480;BME280;3781;42.272;22.658;2023-11-18T04:00:49;93861.19;;;14.75;37.72
7480;BME280;3781;42.272;22.658;2023-11-18T04:03:16;93882.50;;;15.01;38.43
7480;BME280;3781;42.272;22.658;2023-11-18T04:05:44;93888.66;;;14.71;38.56
7480;BME280;3781;42.272;22.658;2023-11-18T04:08:12;93856.44;;;14.93;38.71
7480;BME280;3781;42.272;22.658;2023-11-18T04:10:39;93906.00;;;14.19;39.26
7480;BME280;3781;42.272;22.658;2023-11-18T04:13:06;93900.97;;;13.87;39.90
7480;BME280;3781;42.272;22.658;2023-11-18T04:15:32;93892.34;;;13.47;39.18
7480;BME280;3781;42.272;22.658;2023-11-18T04:18:00;93888.94;;;13.78;39.61
7480;BME280;3781;42.272;22.658;2023-11-18T04:20:28;93896.94;;;14.07;39.17
7480;BME280;3781;42.272;22.658;2023-11-18T04:22:55;93830.94;;;14.44;38.37
7480;BME280;3781;42.272;22.658;2023-11-18T04:25:23;93888.84;;;15.22;37.73
7480;BME280;3781;42.272;22.658;2023-11-18T04:27:50;93902.06;;;14.68;37.81
7480;BME280;3781;42.272;22.658;2023-11-18T04:30:17;93901.78;;;15.52;37.71
7480;BME280;3781;42.272;22.658;2023-11-18T04:32:44;93885.78;;;15.62;36.62
7480;BME280;3781;42.272;22.658;2023-11-18T04:35:11;93874.25;;;15.71;36.38
7480;BME280;3781;42.272;22.658;2023-11-18T04:37:38;93904.72;;;15.93;36.80
7480;BME280;3781;42.272;22.658;2023-11-18T04:40:08;93890.00;;;16.28;38.62
7480;BME280;3781;42.272;22.658;2023-11-18T04:42:39;93910.00;;;16.14;36.12
7480;BME280;3781;42.272;22.658;2023-11-18T04:45:06;93901.41;;;16.20;36.97
7480;BME280;3781;42.272;22.658;2023-11-18T04:47:35;93899.13;;;15.38;36.65
7480;BME280;3781;42.272;22.658;2023-11-18T04:50:03;93904.41;;;15.67;37.49
7480;BME280;3781;42.272;22.658;2023-11-18T04:52:31;93892.53;;;15.85;37.97
7480;BME280;3781;42.272;22.658;2023-11-18T04:55:00;93827.13;;;15.71;38.32
7480;BME280;3781;42.272;22.658;2023-11-18T04:57:27;93879.97;;;15.96;37.78
7480;BME280;3781;42.272;22.658;2023-11-18T04:59:55;93866.63;;;16.47;37.82
7480;BME280;3781;42.272;22.658;2023-11-18T05:02:22;93876.00;;;16.35;37.74
7480;BME280;3781;42.272;22.658;2023-11-18T05:04:49;93884.09;;;16.40;38.25
7480;BME280;3781;42.272;22.658;2023-11-18T05:07:16;93833.53;;;16.04;38.44
7480;BME280;3781;42.272;22.658;2023-11-18T05:09:43;93880.81;;;16.53;37.96
7480;BME280;3781;42.272;22.658;2023-11-18T05:12:10;93872.63;;;16.41;35.76
7480;BME280;3781;42.272;22.658;2023-11-18T05:14:36;93884.91;;;16.05;35.77
7480;BME280;3781;42.272;22.658;2023-11-18T05:17:05;93884.06;;;16.19;36.57
7480;BME280;3781;42.272;22.658;2023-11-18T05:19:32;93859.53;;;15.55;37.00
7480;BME280;3781;42.272;22.658;2023-11-18T05:21:59;93891.47;;;15.22;37.19
7480;BME280;3781;42.272;22.658;2023-11-18T05:24:26;93897.84;;;15.04;37.46
7480;BME280;3781;42.272;22.658;2023-11-18T05:26:53;93904.34;;;14.71;36.92
7480;BME280;3781;42.272;22.658;2023-11-18T05:29:21;93876.94;;;15.04;37.86
7480;BME280;3781;42.272;22.658;2023-11-18T05:31:51;93884.34;;;15.16;36.25
7480;BME280;3781;42.272;22.658;2023-11-18T05:34:19;93896.41;;;15.17;36.42
7480;BME280;3781;42.272;22.658;2023-11-18T05:36:46;93901.56;;;14.73;36.95
7480;BME280;3781;42.272;22.658;2023-11-18T05:39:14;93897.25;;;14.80;37.06
7480;BME280;3781;42.272;22.658;2023-11-18T05:41:41;93881.09;;;14.39;36.16
7480;BME280;3781;42.272;22.658;2023-11-18T05:44:11;93889.72;;;14.99;36.29
7480;BME280;3781;42.272;22.658;2023-11-18T05:46:43;93881.09;;;15.57;36.83
7480;BME280;3781;42.272;22.658;2023-11-18T05:49:12;93875.84;;;15.43;35.78
7480;BME280;3781;42.272;22.658;2023-11-18T05:51:41;93889.78;;;15.58;36.20
7480;BME280;3781;42.272;22.658;2023-11-18T05:54:07;93909.97;;;15.35;36.89
7480;BME280;3781;42.272;22.658;2023-11-18T05:56:34;93901.38;;;15.41;36.80
7480;BME280;3781;42.272;22.658;2023-11-18T05:59:01;93904.31;;;15.60;36.40
7480;BME280;3781;42.272;22.658;2023-11-18T06:01:29;93903.13;;;15.63;35.55
7480;BME280;3781;42.272;22.658;2023-11-18T06:03:57;93905.97;;;15.97;35.41
7480;BME280;3781;42.272;22.658;2023-11-18T06:06:24;93904.81;;;16.00;35.73
7480;BME280;3781;42.272;22.658;2023-11-18T06:08:53;93886.31;;;15.28;35.45
7480;BME280;3781;42.272;22.658;2023-11-18T06:11:20;93853.06;;;14.33;36.80
7480;BME280;3781;42.272;22.658;2023-11-18T06:13:49;93896.88;;;14.46;37.21
7480;BME280;3781;42.272;22.658;2023-11-18T06:16:18;93899.31;;;14.47;37.13
7480;BME280;3781;42.272;22.658;2023-11-18T06:18:47;93861.81;;;14.40;37.05
7480;BME280;3781;42.272;22.658;2023-11-18T06:21:15;93906.28;;;14.55;37.04
7480;BME280;3781;42.272;22.658;2023-11-18T06:23:45;93911.22;;;14.19;37.10
7480;BME280;3781;42.272;22.658;2023-11-18T06:26:14;93885.72;;;14.74;36.60
7480;BME280;3781;42.272;22.658;2023-11-18T06:28:42;93892.16;;;15.01;35.68
7480;BME280;3781;42.272;22.658;2023-11-18T06:31:09;93899.47;;;15.05;36.04
7480;BME280;3781;42.272;22.658;2023-11-18T06:33:37;93884.06;;;15.10;35.76
7480;BME280;3781;42.272;22.658;2023-11-18T06:36:06;93916.59;;;15.74;35.83
7480;BME280;3781;42.272;22.658;2023-11-18T06:38:34;93835.00;;;14.46;34.22
7480;BME280;3781;42.272;22.658;2023-11-18T06:41:01;93919.53;;;14.30;35.43
7480;BME280;3781;42.272;22.658;2023-11-18T06:43:34;93854.34;;;14.74;34.24
7480;BME280;3781;42.272;22.658;2023-11-18T06:46:17;93945.19;;;15.76;33.22
7480;BME280;3781;42.272;22.658;2023-11-18T06:48:46;93945.38;;;15.60;33.94
7480;BME280;3781;42.272;22.658;2023-11-18T06:51:14;93940.31;;;14.69;34.23
7480;BME280;3781;42.272;22.658;2023-11-18T06:53:42;93956.53;;;14.34;34.64
7480;BME280;3781;42.272;22.658;2023-11-18T06:56:09;93952.56;;;15.29;33.58
7480;BME280;3781;42.272;22.658;2023-11-18T06:58:38;93963.97;;;15.13;34.32
7480;BME280;3781;42.272;22.658;2023-11-18T07:01:08;93953.13;;;15.16;34.08
7480;BME280;3781;42.272;22.658;2023-11-18T07:03:35;93977.91;;;15.43;33.18
7480;BME280;3781;42.272;22.658;2023-11-18T07:06:02;93940.69;;;15.70;32.13
7480;BME280;3781;42.272;22.658;2023-11-18T07:08:31;93963.25;;;16.36;32.17
7480;BME280;3781;42.272;22.658;2023-11-18T07:10:57;93955.75;;;16.83;31.40
7480;BME280;3781;42.272;22.658;2023-11-18T07:13:26;93949.88;;;17.30;31.85
7480;BME280;3781;42.272;22.658;2023-11-18T07:15:55;93954.38;;;17.15;30.57
7480;BME280;3781;42.272;22.658;2023-11-18T07:18:23;93956.81;;;17.16;30.81
7480;BME280;3781;42.272;22.658;2023-11-18T07:20:49;93952.44;;;17.72;30.13
7480;BME280;3781;42.272;22.658;2023-11-18T07:23:17;93955.16;;;18.39;30.66
7480;BME280;3781;42.272;22.658;2023-11-18T07:25:45;93956.22;;;18.45;29.18
7480;BME280;3781;42.272;22.658;2023-11-18T07:28:12;93950.09;;;17.90;29.27
7480;BME280;3781;42.272;22.658;2023-11-18T07:30:41;93936.84;;;17.43;29.75
7480;BME280;3781;42.272;22.658;2023-11-18T07:33:09;93945.34;;;17.73;29.97
7480;BME280;3781;42.272;22.658;2023-11-18T07:35:36;93936.41;;;16.91;30.49
7480;BME280;3781;42.272;22.658;2023-11-18T07:38:03;93932.88;;;16.06;31.23
7480;BME280;3781;42.272;22.658;2023-11-18T07:40:32;93911.78;;;15.78;30.88
7480;BME280;3781;42.272;22.658;2023-11-18T07:42:59;93936.16;;;15.64;31.12
7480;BME280;3781;42.272;22.658;2023-11-18T07:45:27;93935.94;;;15.22;31.76
7480;BME280;3781;42.272;22.658;2023-11-18T07:47:54;93959.81;;;15.56;32.00
7480;BME280;3781;42.272;22.658;2023-11-18T07:50:22;93928.56;;;15.98;31.39
7480;BME280;3781;42.272;22.658;2023-11-18T07:52:50;93961.59;;;15.99;30.54
7480;BME280;3781;42.272;22.658;2023-11-18T07:55:17;93962.44;;;15.70;31.72
7480;BME280;3781;42.272;22.658;2023-11-18T07:57:43;93969.22;;;15.65;31.81
7480;BME280;3781;42.272;22.658;2023-11-18T08:00:13;93967.19;;;16.11;31.24
7480;BME280;3781;42.272;22.658;2023-11-18T08:02:40;93980.84;;;15.77;31.89
7480;BME280;3781;42.272;22.658;2023-11-18T08:05:08;93974.75;;;16.20;31.59
7480;BME280;3781;42.272;22.658;2023-11-18T08:07:40;93974.03;;;16.98;30.48
7480;BME280;3781;42.272;22.658;2023-11-18T08:10:09;93969.44;;;16.28;29.97
7480;BME280;3781;42.272;22.658;2023-11-18T08:12:38;93975.47;;;15.27;31.02
7480;BME280;3781;42.272;22.658;2023-11-18T08:15:06;93983.56;;;15.32;31.59
7480;BME280;3781;42.272;22.658;2023-11-18T08:17:34;93997.97;;;16.23;31.19
7480;BME280;3781;42.272;22.658;2023-11-18T08:20:01;93999.88;;;16.29;30.70
7480;BME280;3781;42.272;22.658;2023-11-18T08:22:32;93996.00;;;15.52;31.04
7480;BME280;3781;42.272;22.658;2023-11-18T08:25:01;93984.94;;;15.42;31.04
7480;BME280;3781;42.272;22.658;2023-11-18T08:27:33;93992.59;;;15.81;31.47
7480;BME280;3781;42.272;22.658;2023-11-18T08:30:01;93976.34;;;15.71;31.01
7480;BME280;3781;42.272;22.658;2023-11-18T08:32:31;93994.91;;;15.47;32.22
7480;BME280;3781;42.272;22.658;2023-11-18T08:34:58;93999.44;;;15.16;31.68
7480;BME280;3781;42.272;22.658;2023-11-18T08:37:27;93984.63;;;14.32;32.37
7480;BME280;3781;42.272;22.658;2023-11-18T08:39:54;94006.63;;;14.68;32.35
7480;BME280;3781;42.272;22.658;2023-11-18T08:42:24;94001.97;;;15.01;31.87
7480;BME280;3781;42.272;22.658;2023-11-18T08:44:50;94017.78;;;14.62;32.29
7480;BME280;3781;42.272;22.658;2023-11-18T08:47:18;94027.19;;;15.17;31.96
7480;BME280;3781;42.272;22.658;2023-11-18T08:49:46;93999.56;;;15.37;31.76
7480;BME280;3781;42.272;22.658;2023-11-18T08:52:13;94010.13;;;15.06;31.34
7480;BME280;3781;42.272;22.658;2023-11-18T08:54:40;94006.22;;;14.79;31.40
7480;BME280;3781;42.272;22.658;2023-11-18T08:57:28;93997.19;;;15.79;31.22
7480;BME280;3781;42.272;22.658;2023-11-18T09:00:14;93998.81;;;16.09;31.47
7480;BME280;3781;42.272;22.658;2023-11-18T09:03:03;93938.63;;;15.14;33.01
7480;BME280;3781;42.272;22.658;2023-11-18T09:05:32;93982.91;;;15.15;34.01
7480;BME280;3781;42.272;22.658;2023-11-18T09:08:01;93966.22;;;15.53;33.44
7480;BME280;3781;42.272;22.658;2023-11-18T09:10:31;93999.00;;;16.22;33.26
7480;BME280;3781;42.272;22.658;2023-11-18T09:13:00;93997.78;;;16.39;32.62
7480;BME280;3781;42.272;22.658;2023-11-18T09:15:29;93995.03;;;15.68;32.79
7480;BME280;3781;42.272;22.658;2023-11-18T09:17:56;93995.94;;;16.04;32.85
7480;BME280;3781;42.272;22.658;2023-11-18T09:20:23;93982.94;;;15.67;33.12
7480;BME280;3781;42.272;22.658;2023-11-18T09:22:50;94016.38;;;15.20;33.31
7480;BME280;3781;42.272;22.658;2023-11-18T09:25:21;94019.94;;;16.08;33.15
7480;BME280;3781;42.272;22.658;2023-11-18T09:27:48;93964.31;;;15.10;33.20
7480;BME280;3781;42.272;22.658;2023-11-18T09:30:16;94001.63;;;15.78;32.84
7480;BME280;3781;42.272;22.658;2023-11-18T09:32:43;94012.88;;;15.50;33.79
7480;BME280;3781;42.272;22.658;2023-11-18T09:35:13;94004.06;;;15.05;32.63
7480;BME280;3781;42.272;22.658;2023-11-18T09:37:40;93999.41;;;14.70;34.26
7480;BME280;3781;42.272;22.658;2023-11-18T09:40:09;94004.84;;;15.66;32.89
7480;BME280;3781;42.272;22.658;2023-11-18T09:42:40;94008.19;;;16.18;32.33
7480;BME280;3781;42.272;22.658;2023-11-18T09:45:09;93988.25;;;15.73;32.91
7480;BME280;3781;42.272;22.658;2023-11-18T09:47:43;94004.25;;;17.15;32.80
7480;BME280;3781;42.272;22.658;2023-11-18T09:50:17;94007.22;;;15.90;29.92
7480;BME280;3781;42.272;22.658;2023-11-18T09:52:49;94001.69;;;16.14;31.36
7480;BME280;3781;42.272;22.658;2023-11-18T09:55:26;94005.88;;;16.09;30.43
7480;BME280;3781;42.272;22.658;2023-11-18T09:58:04;94001.31;;;16.32;30.60
7480;BME280;3781;42.272;22.658;2023-11-18T10:00:38;93998.63;;;16.76;30.33
7480;BME280;3781;42.272;22.658;2023-11-18T10:03:08;93978.69;;;16.45;31.49
7480;BME280;3781;42.272;22.658;2023-11-18T10:05:41;93989.25;;;15.87;29.48
7480;BME280;3781;42.272;22.658;2023-11-18T10:08:08;94002.41;;;16.37;30.44
7480;BME280;3781;42.272;22.658;2023-11-18T10:10:36;93994.53;;;16.52;29.46
7480;BME280;3781;42.272;22.658;2023-11-18T10:13:03;94004.13;;;16.81;31.37
7480;BME280;3781;42.272;22.658;2023-11-18T10:15:34;94006.91;;;15.19;30.38
7480;BME280;3781;42.272;22.658;2023-11-18T10:18:02;94007.25;;;16.40;30.53
7480;BME280;3781;42.272;22.658;2023-11-18T10:20:48;93985.63;;;15.88;29.71
7480;BME280;3781;42.272;22.658;2023-11-18T10:23:17;94016.00;;;16.77;29.82
7480;BME280;3781;42.272;22.658;2023-11-18T10:25:46;93998.06;;;16.80;29.20
7480;BME280;3781;42.272;22.658;2023-11-18T10:28:23;94004.94;;;17.72;27.91
7480;BME280;3781;42.272;22.658;2023-11-18T10:30:53;94017.47;;;16.86;28.97
7480;BME280;3781;42.272;22.658;2023-11-18T10:33:23;94009.50;;;16.94;28.13
7480;BME280;3781;42.272;22.658;2023-11-18T10:35:57;94014.19;;;17.68;28.85
7480;BME280;3781;42.272;22.658;2023-11-18T10:38:29;93988.22;;;17.52;29.24
7480;BME280;3781;42.272;22.658;2023-11-18T10:40:57;94024.88;;;17.94;28.41
7480;BME280;3781;42.272;22.658;2023-11-18T10:43:26;93996.69;;;16.63;28.04
7480;BME280;3781;42.272;22.658;2023-11-18T10:46:04;94023.00;;;17.54;27.54
7480;BME280;3781;42.272;22.658;2023-11-18T10:48:38;94001.00;;;15.91;29.08
7480;BME280;3781;42.272;22.658;2023-11-18T10:51:08;94012.00;;;16.30;28.91
7480;BME280;3781;42.272;22.658;2023-11-18T10:53:37;93999.56;;;16.53;28.81
7480;BME280;3781;42.272;22.658;2023-11-18T10:56:05;94004.50;;;17.20;28.31
7480;BME280;3781;42.272;22.658;2023-11-18T10:58:35;93984.88;;;16.95;29.19
7480;BME280;3781;42.272;22.658;2023-11-18T11:01:06;93987.63;;;15.86;28.48
7480;BME280;3781;42.272;22.658;2023-11-18T11:03:52;93956.53;;;16.12;27.79
7480;BME280;3781;42.272;22.658;2023-11-18T11:06:24;93971.56;;;15.89;29.02
7480;BME280;3781;42.272;22.658;2023-11-18T11:08:51;93985.25;;;16.20;29.48
7480;BME280;3781;42.272;22.658;2023-11-18T11:11:20;93955.94;;;16.31;28.94
7480;BME280;3781;42.272;22.658;2023-11-18T11:13:49;93970.31;;;16.50;28.42
7480;BME280;3781;42.272;22.658;2023-11-18T11:16:18;93956.56;;;16.33;29.17
7480;BME280;3781;42.272;22.658;2023-11-18T11:18:48;93962.28;;;16.37;28.44
7480;BME280;3781;42.272;22.658;2023-11-18T11:21:20;93967.78;;;16.27;30.57
7480;BME280;3781;42.272;22.658;2023-11-18T11:23:54;93981.91;;;16.26;29.08
7480;BME280;3781;42.272;22.658;2023-11-18T11:26:40;93976.38;;;17.35;28.83
7480;BME280;3781;42.272;22.658;2023-11-18T11:29:18;93991.13;;;18.93;27.95
7480;BME280;3781;42.272;22.658;2023-11-18T11:32:02;93977.41;;;21.84;25.07
7480;BME280;3781;42.272;22.658;2023-11-18T11:34:30;93991.72;;;22.92;23.55
7480;BME280;3781;42.272;22.658;2023-11-18T11:37:00;93987.19;;;21.77;23.32
7480;BME280;3781;42.272;22.658;2023-11-18T11:39:31;93984.69;;;20.70;23.69
7480;BME280;3781;42.272;22.658;2023-11-18T11:42:02;93978.19;;;22.09;22.98
7480;BME280;3781;42.272;22.658;2023-11-18T11:44:35;93917.66;;;22.19;22.48
7480;BME280;3781;42.272;22.658;2023-11-18T11:47:08;93912.31;;;21.90;22.62
7480;BME280;3781;42.272;22.658;2023-11-18T11:49:47;93961.81;;;22.01;23.16
7480;BME280;3781;42.272;22.658;2023-11-18T11:52:22;93968.72;;;23.04;22.52
7480;BME280;3781;42.272;22.658;2023-11-18T11:55:00;93963.75;;;20.31;24.14
7480;BME280;3781;42.272;22.658;2023-11-18T11:57:29;93962.16;;;18.79;25.97
7480;BME280;3781;42.272;22.658;2023-11-18T12:00:03;93969.44;;;18.71;26.62
7480;BME280;3781;42.272;22.658;2023-11-18T12:02:47;93941.50;;;18.57;26.45
7480;BME280;3781;42.272;22.658;2023-11-18T12:05:15;93930.44;;;18.34;26.21
7480;BME280;3781;42.272;22.658;2023-11-18T12:07:44;93991.28;;;18.65;27.14
7480;BME280;3781;42.272;22.658;2023-11-18T12:10:13;93979.88;;;18.45;26.88
7480;BME280;3781;42.272;22.658;2023-11-18T12:12:46;93927.00;;;17.24;27.33
7480;BME280;3781;42.272;22.658;2023-11-18T12:15:13;93979.81;;;18.38;27.14
7480;BME280;3781;42.272;22.658;2023-11-18T12:18:09;93963.44;;;19.75;25.07
7480;BME280;3781;42.272;22.658;2023-11-18T12:20:39;93989.28;;;20.81;23.80
7480;BME280;3781;42.272;22.658;2023-11-18T12:23:08;93995.41;;;22.18;23.31
7480;BME280;3781;42.272;22.658;2023-11-18T12:25:41;93988.28;;;22.37;21.61
7480;BME280;3781;42.272;22.658;2023-11-18T12:28:09;93997.66;;;23.35;21.38
7480;BME280;3781;42.272;22.658;2023-11-18T12:30:43;93998.13;;;25.22;19.47
7480;BME280;3781;42.272;22.658;2023-11-18T12:33:21;94006.91;;;23.44;20.46
7480;BME280;3781;42.272;22.658;2023-11-18T12:39:34;94017.28;;;23.69;20.86
7480;BME280;3781;42.272;22.658;2023-11-18T12:42:08;93962.19;;;22.88;20.58
7480;BME280;3781;42.272;22.658;2023-11-18T12:45:10;93999.72;;;21.39;22.05
7480;BME280;3781;42.272;22.658;2023-11-18T12:47:43;94007.84;;;21.93;22.41
7480;BME280;3781;42.272;22.658;2023-11-18T12:50:15;94019.94;;;21.27;22.75
7480;BME280;3781;42.272;22.658;2023-11-18T12:52:50;94021.34;;;20.27;23.89
7480;BME280;3781;42.272;22.658;2023-11-18T12:55:18;94041.06;;;19.99;24.00
7480;BME280;3781;42.272;22.658;2023-11-18T12:57:47;94019.50;;;18.97;24.53
7480;BME280;3781;42.272;22.658;2023-11-18T13:00:17;94046.84;;;18.49;26.38
7480;BME280;3781;42.272;22.658;2023-11-18T13:02:55;94033.16;;;19.33;26.17
7480;BME280;3781;42.272;22.658;2023-11-18T13:05:23;94047.34;;;19.98;25.05
7480;BME280;3781;42.272;22.658;2023-11-18T13:07:55;93997.00;;;17.93;26.61
7480;BME280;3781;42.272;22.658;2023-11-18T13:10:23;94060.28;;;18.67;26.57
7480;BME280;3781;42.272;22.658;2023-11-18T13:12:54;94047.25;;;17.84;27.41
7480;BME280;3781;42.272;22.658;2023-11-18T13:15:21;94032.88;;;17.80;27.80
7480;BME280;3781;42.272;22.658;2023-11-18T13:17:59;93998.50;;;17.05;28.71
7480;BME280;3781;42.272;22.658;2023-11-18T13:20:27;94049.75;;;16.21;29.91
7480;BME280;3781;42.272;22.658;2023-11-18T13:22:54;94006.19;;;14.87;30.92
7480;BME280;3781;42.272;22.658;2023-11-18T13:25:22;94039.84;;;14.60;32.36